Time;durP1;ratioP1;P1;durP2;ratioP2;P2;SDS_P1;SDS_P2;PMS_P1;PMS_P2;Temp;Humidity;BMP_temperature;BMP_pressure;BME280_temperature;BME280_humidity;BME280_pressure;Samples;Min_cycle;Max_cycle;Signal;HPM_P1;HPM_P2
2023/01/01 00:02:11;;;;;;;8.32;6.05;;;;;;;8.05;100.00;101075.72;6364125;27;20038;-78
2023/01/01 00:05:12;;;;;;;9.02;6.15;;;;;;;8.01;100.00;101074.13;6370889;27;20035;-78
2023/01/01 00:08:13;;;;;;;15.38;7.25;;;;;;;7.97;100.00;101069.94;6370520;27;20049;-78
2023/01/01 00:11:14;;;;;;;12.32;5.82;;;;;;;7.97;100.00;101074.25;6338351;27;20099;-78
2023/01/01 00:14:15;;;;;;;11.55;6.57;;;;;;;7.86;100.00;101057.31;6349372;27;20050;-78
2023/01/01 00:17:15;;;;;;;14.65;7.07;;;;;;;7.92;100.00;101070.97;6361981;27;20031;-78
2023/01/01 00:20:17;;;;;;;15.52;6.53;;;;;;;7.82;100.00;101084.31;6359711;27;20031;-79
2023/01/01 00:23:20;;;;;;;13.35;6.97;;;;;;;7.84;100.00;101073.84;6357154;27;20059;-78
2023/01/01 00:26:20;;;;;;;10.50;6.68;;;;;;;7.81;100.00;101074.78;6351186;27;20123;-78
2023/01/01 00:29:23;;;;;;;10.52;5.82;;;;;;;7.87;100.00;101094.53;6352059;27;20035;-78
2023/01/01 00:32:25;;;;;;;11.60;6.03;;;;;;;7.78;100.00;101089.63;6358755;27;20050;-79
2023/01/01 00:35:28;;;;;;;8.75;5.45;;;;;;;7.84;100.00;101090.28;6360151;27;20451;-78
2023/01/01 00:38:31;;;;;;;11.63;5.85;;;;;;;7.74;100.00;101099.28;6355325;27;20046;-78
2023/01/01 00:41:32;;;;;;;15.52;6.63;;;;;;;7.70;100.00;101102.00;6366430;27;20055;-77
2023/01/01 00:44:33;;;;;;;17.08;8.50;;;;;;;7.70;100.00;101104.63;6353732;27;20627;-78
2023/01/01 00:47:36;;;;;;;13.98;7.03;;;;;;;7.83;100.00;101114.56;6370508;27;20046;-78
2023/01/01 00:50:37;;;;;;;12.55;7.20;;;;;;;7.91;100.00;101113.44;6364949;27;20547;-78
2023/01/01 00:53:37;;;;;;;14.77;7.40;;;;;;;7.94;100.00;101111.59;6368556;27;20091;-78
2023/01/01 00:56:38;;;;;;;10.45;7.00;;;;;;;7.90;100.00;101114.38;6363803;27;20039;-78
2023/01/01 00:59:39;;;;;;;17.73;6.78;;;;;;;8.02;100.00;101117.41;6361173;27;20043;-78
2023/01/01 01:02:40;;;;;;;13.70;6.95;;;;;;;7.94;100.00;101119.41;6365899;27;20032;-77
2023/01/01 01:05:41;;;;;;;9.75;5.95;;;;;;;7.97;100.00;101110.66;6370247;27;20043;-78
2023/01/01 01:08:44;;;;;;;10.82;7.15;;;;;;;8.03;100.00;101120.84;6363367;28;20251;-78
2023/01/01 01:11:45;;;;;;;12.43;6.70;;;;;;;7.97;100.00;101114.13;6361186;27;20448;-78
2023/01/01 01:14:46;;;;;;;8.45;6.00;;;;;;;7.96;100.00;101107.22;6335081;28;20077;-78
2023/01/01 01:17:47;;;;;;;16.33;7.75;;;;;;;7.88;100.00;101104.84;6343502;28;20135;-78
2023/01/01 01:20:52;;;;;;;11.85;7.07;;;;;;;7.85;100.00;101101.53;6345299;28;20039;-77
2023/01/01 01:23:53;;;;;;;13.32;7.13;;;;;;;7.84;100.00;101102.41;6332751;28;20056;-78
2023/01/01 01:26:57;;;;;;;14.47;8.03;;;;;;;7.69;100.00;101083.00;6366010;27;20104;-78
2023/01/01 01:29:58;;;;;;;10.43;6.53;;;;;;;7.69;100.00;101095.97;6359850;27;20039;-77
2023/01/01 01:32:59;;;;;;;9.25;6.22;;;;;;;7.70;100.00;101081.22;6360491;28;20038;-78
2023/01/01 01:36:02;;;;;;;9.20;5.27;;;;;;;7.74;100.00;101099.28;6362036;28;20039;-78
2023/01/01 01:39:03;;;;;;;;;;;;;;;7.68;100.00;101096.91;6369027;27;20267;-78
2023/01/01 01:42:04;;;;;;;12.70;6.68;;;;;;;7.67;100.00;101090.81;6367877;28;19958;-78
2023/01/01 01:45:09;;;;;;;11.32;6.68;;;;;;;7.66;100.00;101096.94;6360247;28;20052;-78
2023/01/01 01:48:10;;;;;;;9.63;5.65;;;;;;;7.67;100.00;101096.03;6342925;28;20511;-78
2023/01/01 01:51:14;;;;;;;9.98;5.95;;;;;;;7.73;100.00;101087.19;6356139;27;20036;-78
2023/01/01 01:54:20;;;;;;;9.65;5.53;;;;;;;7.61;100.00;101093.63;6359655;27;20139;-78
2023/01/01 01:57:24;;;;;;;12.50;6.80;;;;;;;7.58;100.00;101085.94;6368826;27;20055;-77
2023/01/01 02:00:27;;;;;;;9.15;5.00;;;;;;;7.61;100.00;101092.78;6365662;28;20493;-78
2023/01/01 02:03:43;;;;;;;13.50;6.82;;;;;;;7.57;100.00;101091.19;6368915;28;20050;-77
2023/01/01 02:06:44;;;;;;;9.10;5.68;;;;;;;7.49;100.00;101073.22;6366400;27;20494;-78
2023/01/01 02:09:45;;;;;;;9.50;6.00;;;;;;;7.60;100.00;101083.31;6372529;27;20039;-78
2023/01/01 02:12:46;;;;;;;10.57;5.93;;;;;;;7.60;100.00;101081.53;6360128;27;20047;-78
2023/01/01 02:16:11;;;;;;;11.10;6.63;;;;;;;7.59;100.00;101072.03;6357863;27;20040;-78
2023/01/01 02:19:18;;;;;;;19.52;6.85;;;;;;;7.67;100.00;101072.63;6347473;28;20048;-78
2023/01/01 02:22:31;;;;;;;10.77;6.93;;;;;;;7.64;100.00;101077.94;6355535;27;20059;-78
2023/01/01 02:26:00;;;;;;;8.65;5.78;;;;;;;7.68;100.00;101076.13;6371470;27;20421;-78
2023/01/01 02:29:23;;;;;;;11.85;5.53;;;;;;;7.63;100.00;101078.84;6367273;27;20111;-78
2023/01/01 02:32:32;;;;;;;13.80;7.18;;;;;;;7.70;100.00;101089.03;6356743;27;20044;-77
2023/01/01 02:35:38;;;;;;;8.95;4.78;;;;;;;7.70;100.00;101086.44;6357223;27;20039;-77
2023/01/01 02:38:44;;;;;;;10.05;6.00;;;;;;;7.72;100.00;101088.09;6372872;27;20040;-77
2023/01/01 02:41:49;;;;;;;14.23;5.88;;;;;;;7.68;100.00;101083.91;6367564;27;20055;-78
2023/01/01 02:44:53;;;;;;;10.15;5.85;;;;;;;7.74;100.00;101090.63;6353592;27;20036;-77
2023/01/01 02:47:54;;;;;;;14.60;6.30;;;;;;;7.66;100.00;101089.16;6373563;27;20505;-78
2023/01/01 02:51:00;;;;;;;10.93;6.15;;;;;;;7.64;100.00;101077.09;6349816;27;20055;-78
2023/01/01 02:54:15;;;;;;;12.02;6.68;;;;;;;7.58;100.00;101077.31;6355916;27;20050;-78
2023/01/01 02:57:32;;;;;;;9.65;6.40;;;;;;;7.55;100.00;101075.63;6354005;27;20047;-78
2023/01/01 03:00:34;;;;;;;10.27;6.15;;;;;;;7.52;100.00;101080.09;6368041;27;20035;-77
2023/01/01 03:03:41;;;;;;;14.38;6.13;;;;;;;7.52;100.00;101088.72;6352413;27;20039;-78
2023/01/01 03:06:54;;;;;;;16.48;6.38;;;;;;;7.38;100.00;101086.56;6364379;27;20066;-78
2023/01/01 03:10:06;;;;;;;16.33;7.38;;;;;;;7.41;100.00;101083.88;6330843;27;20503;-78
2023/01/01 03:13:47;;;;;;;15.25;6.93;;;;;;;7.38;100.00;101088.31;6345418;27;20042;-78
2023/01/01 03:16:57;;;;;;;11.60;5.68;;;;;;;7.31;100.00;101081.59;6346388;27;20134;-78
2023/01/01 03:20:03;;;;;;;14.88;6.38;;;;;;;7.29;100.00;101084.28;6348247;27;20032;-78
2023/01/01 03:23:09;;;;;;;15.55;7.45;;;;;;;7.15;100.00;101081.25;6370352;27;20043;-78
2023/01/01 03:26:14;;;;;;;12.98;6.93;;;;;;;7.15;100.00;101091.63;6358500;27;20040;-78
2023/01/01 03:29:16;;;;;;;12.70;6.40;;;;;;;7.12;100.00;101092.53;6347735;27;20126;-78
2023/01/01 03:32:59;;;;;;;10.73;6.03;;;;;;;7.20;100.00;101089.72;6349110;27;20039;-78
2023/01/01 03:35:58;;;;;;;19.48;5.90;;;;;;;7.07;100.00;101092.69;6354538;27;20035;-77
2023/01/01 03:39:11;;;;;;;10.00;5.85;;;;;;;7.00;100.00;101103.28;6348145;27;20409;-78
2023/01/01 03:42:31;;;;;;;7.95;5.55;;;;;;;7.04;100.00;101102.31;6331393;27;20138;-78
2023/01/01 03:45:47;;;;;;;9.45;6.10;;;;;;;6.97;100.00;101101.63;6353435;27;20040;-78
2023/01/01 03:48:59;;;;;;;11.07;5.57;;;;;;;6.96;100.00;101102.56;6348437;27;20036;-78
2023/01/01 03:52:14;;;;;;;12.65;6.00;;;;;;;6.88;100.00;101108.84;6345862;27;20039;-78
2023/01/01 03:55:26;;;;;;;9.80;4.80;;;;;;;6.90;100.00;101101.84;6345913;28;20043;-78
2023/01/01 03:58:34;;;;;;;;;;;;;;;6.77;100.00;101099.63;6361781;27;20447;-78
2023/01/01 04:01:44;;;;;;;10.15;5.32;;;;;;;6.88;100.00;101108.84;6342982;27;20411;-78
2023/01/01 04:04:48;;;;;;;11.80;5.15;;;;;;;6.95;100.00;101102.59;6347328;27;20046;-78
2023/01/01 04:07:53;;;;;;;10.77;5.72;;;;;;;6.92;100.00;101110.44;6349524;27;20043;-78
2023/01/01 04:10:56;;;;;;;10.20;5.50;;;;;;;6.88;100.00;101114.91;6344307;27;20047;-78
2023/01/01 04:13:57;;;;;;;13.15;5.35;;;;;;;6.78;100.00;101110.88;6345946;28;20047;-78
2023/01/01 04:16:59;;;;;;;7.38;4.97;;;;;;;6.80;100.00;101104.72;6344316;28;20058;-78
2023/01/01 04:20:06;;;;;;;14.77;6.55;;;;;;;6.81;100.00;101102.97;6345253;27;20091;-77
2023/01/01 04:23:07;;;;;;;9.43;5.72;;;;;;;6.83;100.00;101114.16;6371258;27;20046;-77
2023/01/01 04:26:14;;;;;;;11.45;6.43;;;;;;;6.89;100.00;101118.34;6360695;27;20035;-78
2023/01/01 04:29:16;;;;;;;11.13;5.70;;;;;;;6.87;100.00;101118.38;6354173;27;20306;-78
2023/01/01 04:32:17;;;;;;;7.18;4.88;;;;;;;6.90;100.00;101125.22;6369406;27;20035;-78
2023/01/01 04:35:18;;;;;;;13.18;5.82;;;;;;;6.87;100.00;101126.16;6360182;27;20380;-77
2023/01/01 04:38:18;;;;;;;12.02;6.72;;;;;;;6.86;100.00;101134.84;6345107;28;20039;-78
2023/01/01 04:41:19;;;;;;;8.32;4.75;;;;;;;6.83;100.00;101150.47;6350108;27;20048;-78
2023/01/01 04:44:20;;;;;;;13.75;6.25;;;;;;;6.81;100.00;101153.09;6345451;27;20050;-78
2023/01/01 04:47:21;;;;;;;11.40;5.47;;;;;;;6.77;100.00;101146.31;6354218;27;20047;-78
2023/01/01 04:50:22;;;;;;;10.00;5.43;;;;;;;6.81;100.00;101155.72;6358353;27;20032;-78
2023/01/01 04:53:23;;;;;;;8.88;5.18;;;;;;;6.80;100.00;101150.59;6341327;27;20028;-77
2023/01/01 04:56:25;;;;;;;11.38;5.95;;;;;;;6.74;100.00;101146.41;6343634;28;20092;-77
2023/01/01 04:59:25;;;;;;;8.85;5.18;;;;;;;6.71;100.00;101143.88;6357875;27;20134;-77
2023/01/01 05:02:26;;;;;;;10.80;5.72;;;;;;;6.66;100.00;101143.16;6359768;27;20511;-77
2023/01/01 05:05:29;;;;;;;11.50;5.38;;;;;;;6.68;100.00;101136.19;6340880;28;20040;-77
2023/01/01 05:08:32;;;;;;;11.93;6.35;;;;;;;6.68;100.00;101138.78;6343403;28;20558;-78
2023/01/01 05:11:33;;;;;;;11.00;5.00;;;;;;;6.72;100.00;101139.56;6344987;28;20490;-78
2023/01/01 05:14:34;;;;;;;14.40;5.75;;;;;;;6.68;100.00;101133.59;6345815;28;20067;-78
2023/01/01 05:17:35;;;;;;;8.32;4.88;;;;;;;6.66;100.00;101131.03;6341867;28;20054;-78
2023/01/01 05:20:38;;;;;;;9.95;5.78;;;;;;;6.68;100.00;101137.94;6343101;28;20457;-78
2023/01/01 05:23:39;;;;;;;14.60;4.80;;;;;;;6.65;100.00;101123.31;6342496;28;20035;-78
2023/01/01 05:26:43;;;;;;;9.10;4.25;;;;;;;6.68;100.00;101125.81;6326019;28;20134;-78
2023/01/01 05:29:43;;;;;;;7.50;4.50;;;;;;;6.67;100.00;101129.28;6353275;28;20494;-78
2023/01/01 05:32:44;;;;;;;8.50;4.85;;;;;;;6.67;100.00;101134.47;6341803;28;20035;-78
2023/01/01 05:35:53;;;;;;;5.75;3.65;;;;;;;6.70;100.00;101141.34;6340567;28;20343;-78
2023/01/01 05:38:55;;;;;;;13.40;4.75;;;;;;;6.78;100.00;101150.63;6341632;27;20039;-78
2023/01/01 05:41:56;;;;;;;8.47;4.30;;;;;;;6.73;100.00;101155.06;6357627;27;20502;-78
2023/01/01 05:44:57;;;;;;;7.38;4.60;;;;;;;6.66;100.00;101136.22;6352098;27;20035;-78
2023/01/01 05:47:57;;;;;;;8.48;4.28;;;;;;;6.68;100.00;101133.59;6348628;27;20043;-78
2023/01/01 05:51:12;;;;;;;8.70;5.38;;;;;;;6.75;100.00;101144.66;6345301;27;20050;-77
2023/01/01 05:54:13;;;;;;;8.93;5.32;;;;;;;6.64;100.00;101140.63;6343625;27;20204;-78
2023/01/01 05:57:13;;;;;;;8.43;4.93;;;;;;;6.66;100.00;101140.59;6349080;27;20036;-77
2023/01/01 06:00:15;;;;;;;7.63;4.88;;;;;;;6.69;100.00;101166.41;6355846;27;20069;-78
2023/01/01 06:03:16;;;;;;;16.42;6.53;;;;;;;6.66;100.00;101153.53;6351681;27;20375;-78
2023/01/01 06:06:18;;;;;;;10.52;4.97;;;;;;;6.66;100.00;101162.16;6358273;27;20044;-78
2023/01/01 06:09:19;;;;;;;;;;;;;;;6.68;100.00;101167.31;6347422;27;20042;-78
2023/01/01 06:12:20;;;;;;;12.35;5.85;;;;;;;6.64;100.00;101160.53;6362836;27;19919;-78
2023/01/01 06:15:20;;;;;;;6.43;4.20;;;;;;;6.53;100.00;101155.63;6343152;27;20035;-78
2023/01/01 06:18:24;;;;;;;7.78;4.65;;;;;;;6.54;100.00;101175.47;6345723;27;20418;-78
2023/01/01 06:21:27;;;;;;;8.93;5.10;;;;;;;6.58;100.00;101168.47;6347277;27;20043;-78
2023/01/01 06:24:29;;;;;;;5.97;4.60;;;;;;;6.48;100.00;101175.63;6347323;27;20043;-78
2023/01/01 06:27:30;;;;;;;5.72;4.25;;;;;;;6.44;100.00;101185.25;6347124;27;20039;-78
2023/01/01 06:30:33;;;;;;;8.57;5.13;;;;;;;6.50;100.00;101178.19;6343223;27;20050;-78
2023/01/01 06:33:34;;;;;;;;;;;;;;;6.47;100.00;101178.28;6348706;27;20521;-78
2023/01/01 06:36:34;;;;;;;5.03;3.25;;;;;;;6.47;100.00;101168.75;6345462;27;19927;-77
2023/01/01 06:39:35;;;;;;;8.85;4.68;;;;;;;6.52;100.00;101172.06;6345615;27;20035;-77
2023/01/01 06:42:36;;;;;;;7.07;4.47;;;;;;;6.54;100.00;101172.88;6349361;27;20100;-78
2023/01/01 06:45:39;;;;;;;9.07;4.97;;;;;;;6.55;100.00;101174.59;6345152;27;20031;-78
2023/01/01 06:48:40;;;;;;;6.93;4.57;;;;;;;6.61;100.00;101177.03;6345392;27;20043;-78
2023/01/01 06:51:42;;;;;;;7.78;4.75;;;;;;;6.75;100.00;101181.81;6351060;27;20118;-77
2023/01/01 06:54:43;;;;;;;6.40;4.45;;;;;;;6.76;100.00;101193.91;6353150;27;20509;-78
2023/01/01 06:57:46;;;;;;;7.57;4.80;;;;;;;6.84;100.00;101191.13;6355808;27;20119;-78
2023/01/01 07:00:47;;;;;;;9.45;4.75;;;;;;;6.89;100.00;101196.16;6357042;27;20154;-78
2023/01/01 07:03:52;;;;;;;12.75;5.50;;;;;;;6.99;100.00;101189.84;6353726;27;20456;-77
2023/01/01 07:06:55;;;;;;;5.80;4.28;;;;;;;6.93;100.00;101185.66;6353485;27;20116;-78
2023/01/01 07:09:56;;;;;;;7.90;4.72;;;;;;;6.98;100.00;101169.94;6359861;27;20049;-77
2023/01/01 07:12:57;;;;;;;8.27;5.13;;;;;;;7.21;100.00;101182.28;6369418;27;20110;-78
2023/01/01 07:15:58;;;;;;;7.25;4.70;;;;;;;7.26;100.00;101180.41;6355809;27;20311;-79
2023/01/01 07:19:00;;;;;;;9.10;4.88;;;;;;;7.24;100.00;101177.84;6346514;28;20390;-80
2023/01/01 07:22:00;;;;;;;6.95;4.97;;;;;;;7.30;100.00;101181.16;6353039;27;20039;-80
2023/01/01 07:25:01;;;;;;;9.25;5.43;;;;;;;7.45;100.00;101202.34;6361705;27;20393;-78
2023/01/01 07:28:02;;;;;;;10.50;4.88;;;;;;;7.52;100.00;101209.97;6372978;27;20058;-80
2023/01/01 07:31:05;;;;;;;8.77;5.38;;;;;;;7.59;100.00;101201.91;6372795;27;20035;-77
2023/01/01 07:34:09;;;;;;;9.65;4.35;;;;;;;7.59;100.00;101207.09;6371596;27;20180;-78
2023/01/01 07:37:10;;;;;;;13.20;5.72;;;;;;;7.56;100.00;101196.81;6371310;27;20054;-77
2023/01/01 07:40:11;;;;;;;7.95;4.22;;;;;;;7.64;100.00;101201.78;6372355;27;20402;-78
2023/01/01 07:43:14;;;;;;;12.02;5.38;;;;;;;7.70;100.00;101199.00;6372211;27;20051;-80
2023/01/01 07:46:17;;;;;;;8.35;5.63;;;;;;;7.75;100.00;101219.66;6371165;27;20042;-79
2023/01/01 07:49:18;;;;;;;9.07;4.90;;;;;;;7.73;100.00;101224.88;6372283;27;20056;-79
2023/01/01 07:52:19;;;;;;;7.90;4.40;;;;;;;7.76;100.00;101217.00;6353644;27;20130;-80
2023/01/01 07:55:20;;;;;;;13.38;5.60;;;;;;;7.83;100.00;101225.47;6358717;27;20039;-80
2023/01/01 07:58:21;;;;;;;7.65;4.22;;;;;;;7.83;100.00;101223.69;6372117;27;20116;-77
2023/01/01 08:01:23;;;;;;;7.93;5.28;;;;;;;7.69;100.00;101230.22;6371999;27;20031;-80
2023/01/01 08:04:26;;;;;;;7.63;4.22;;;;;;;7.90;100.00;101242.53;6370712;27;20405;-78
2023/01/01 08:07:27;;;;;;;5.88;3.70;;;;;;;7.87;100.00;101233.09;6370552;27;20035;-78
2023/01/01 08:10:33;;;;;;;8.30;5.35;;;;;;;7.90;100.00;101242.53;6370680;27;20066;-78
2023/01/01 08:13:34;;;;;;;11.13;5.28;;;;;;;7.84;100.00;101243.59;6370436;27;20055;-80
2023/01/01 08:16:34;;;;;;;8.10;4.75;;;;;;;8.04;100.00;101242.13;6370174;27;20055;-78
2023/01/01 08:19:35;;;;;;;9.52;4.55;;;;;;;8.17;100.00;101243.41;6370933;27;20501;-80
2023/01/01 08:22:36;;;;;;;9.07;4.88;;;;;;;8.18;100.00;101252.94;6369780;27;20051;-78
2023/01/01 08:25:37;;;;;;;8.40;5.07;;;;;;;8.31;100.00;101252.53;6354093;27;20404;-80
2023/01/01 08:28:38;;;;;;;8.82;4.90;;;;;;;8.44;100.00;101254.72;6359354;27;20039;-78
2023/01/01 08:31:39;;;;;;;9.88;4.72;;;;;;;8.50;100.00;101256.25;6331575;28;20073;-78
2023/01/01 08:34:40;;;;;;;8.48;5.15;;;;;;;8.55;100.00;101248.31;6344914;28;20044;-78
2023/01/01 08:37:41;;;;;;;6.20;2.92;;;;;;;8.66;100.00;101254.84;6344787;28;20092;-78
2023/01/01 08:40:43;;;;;;;7.53;3.97;;;;;;;8.87;100.00;101268.03;6344843;28;20039;-78
2023/01/01 08:43:46;;;;;;;6.80;4.10;;;;;;;8.90;100.00;101267.09;6354861;27;20486;-79
2023/01/01 08:46:48;;;;;;;10.77;4.75;;;;;;;9.04;100.00;101270.06;6363921;27;20414;-78
2023/01/01 08:49:50;;;;;;;6.80;4.28;;;;;;;9.09;100.00;101268.13;6369922;27;20130;-81
2023/01/01 08:52:50;;;;;;;7.70;4.73;;;;;;;9.28;100.00;101276.97;6369780;27;20394;-78
2023/01/01 08:56:14;;;;;;;11.07;4.57;;;;;;;9.26;100.00;101270.97;6369325;27;20035;-79
2023/01/01 08:59:15;;;;;;;8.07;5.10;;;;;;;9.52;100.00;101281.38;6367622;27;20112;-78
2023/01/01 09:02:16;;;;;;;10.30;5.93;;;;;;;9.59;100.00;101288.03;6352145;28;20043;-78
2023/01/01 09:05:17;;;;;;;13.73;4.93;;;;;;;9.66;100.00;101284.31;6369539;27;20092;-78
2023/01/01 09:08:18;;;;;;;9.90;4.43;;;;;;;9.78;100.00;101281.25;6369823;27;20078;-78
2023/01/01 09:11:25;;;;;;;7.33;4.50;;;;;;;10.02;100.00;101281.19;6369940;27;20032;-77
2023/01/01 09:14:26;;;;;;;12.25;7.28;;;;;;;9.89;100.00;101275.59;6370853;27;20058;-79
2023/01/01 09:17:27;;;;;;;11.13;6.43;;;;;;;10.06;100.00;101283.59;6372497;27;20405;-79
2023/01/01 09:20:27;;;;;;;6.85;4.72;;;;;;;10.18;100.00;101284.03;6374762;27;20107;-80
2023/01/01 09:23:28;;;;;;;8.52;5.18;;;;;;;10.23;100.00;101274.25;6374704;27;20539;-79
2023/01/01 09:26:29;;;;;;;10.40;5.90;;;;;;;10.37;100.00;101258.94;6366208;27;20035;-77
2023/01/01 09:29:30;;;;;;;7.45;4.35;;;;;;;10.54;100.00;101258.22;6350045;28;20046;-79
2023/01/01 09:32:33;;;;;;;10.18;5.40;;;;;;;10.52;100.00;101254.84;6356360;27;20493;-79
2023/01/01 09:35:37;;;;;;;9.77;5.43;;;;;;;10.91;100.00;101258.44;6366259;27;20406;-79
2023/01/01 09:38:40;;;;;;;9.77;5.55;;;;;;;10.79;100.00;101250.25;6372781;27;20110;-78
2023/01/01 09:42:04;;;;;;;10.20;5.43;;;;;;;10.98;100.00;101245.06;6371985;27;20053;-78
2023/01/01 09:45:31;;;;;;;13.10;5.45;;;;;;;11.05;100.00;101249.09;6320655;27;20077;-78
2023/01/01 09:48:35;;;;;;;10.98;5.43;;;;;;;11.37;100.00;101236.38;6331073;28;20054;-79
2023/01/01 09:51:38;;;;;;;8.45;4.95;;;;;;;11.46;100.00;101225.47;6349259;28;20097;-79
2023/01/01 09:54:47;;;;;;;9.55;5.47;;;;;;;11.63;98.94;101226.47;6347804;28;20123;-79
2023/01/01 09:57:48;;;;;;;6.15;4.32;;;;;;;11.78;98.41;101238.84;6349204;28;20427;-79
2023/01/01 10:00:54;;;;;;;7.60;4.68;;;;;;;11.72;98.69;101233.88;6347590;28;20043;-79
2023/01/01 10:04:22;;;;;;;7.32;4.90;;;;;;;12.03;98.45;101238.53;6330407;28;20482;-78
2023/01/01 10:07:29;;;;;;;8.30;5.22;;;;;;;11.99;96.87;101238.75;6349178;28;20416;-79
2023/01/01 10:10:39;;;;;;;9.60;5.13;;;;;;;11.95;97.15;101237.22;6347895;28;20039;-79
2023/01/01 10:13:45;;;;;;;8.80;4.68;;;;;;;12.11;96.22;101230.31;6347430;28;20092;-78
2023/01/01 10:16:50;;;;;;;10.55;6.20;;;;;;;12.23;96.26;101226.22;6347625;28;20040;-78
2023/01/01 10:19:56;;;;;;;10.38;5.60;;;;;;;12.30;96.75;101222.41;6351497;27;20294;-78
2023/01/01 10:23:14;;;;;;;7.95;4.95;;;;;;;12.21;95.14;101221.09;6359141;27;20035;-79
2023/01/01 10:26:20;;;;;;;8.95;5.28;;;;;;;12.20;95.62;101226.41;6358653;27;20398;-78
2023/01/01 10:29:29;;;;;;;9.00;5.18;;;;;;;12.24;96.39;101218.31;6350205;27;20059;-79
2023/01/01 10:32:33;;;;;;;5.82;4.35;;;;;;;12.26;96.72;101216.47;6330037;27;20047;-79
2023/01/01 10:35:38;;;;;;;7.57;4.57;;;;;;;12.36;97.37;101216.88;6350201;27;20505;-79
2023/01/01 10:38:40;;;;;;;7.85;4.50;;;;;;;12.39;96.14;101211.47;6355369;27;20460;-79
2023/01/01 10:41:42;;;;;;;7.30;3.92;;;;;;;12.56;95.57;101217.63;6352656;27;20126;-79
2023/01/01 10:44:43;;;;;;;8.15;5.05;;;;;;;12.57;94.05;101221.94;6349708;28;20055;-79
2023/01/01 10:48:14;;;;;;;7.45;4.85;;;;;;;12.49;95.62;101210.09;6350203;28;20039;-79
2023/01/01 10:51:23;;;;;;;7.93;4.43;;;;;;;12.61;96.59;101213.00;6341658;27;20051;-78
2023/01/01 10:54:35;;;;;;;8.85;5.00;;;;;;;12.54;96.60;101215.09;6348355;27;20054;-78
2023/01/01 10:57:37;;;;;;;9.65;4.93;;;;;;;12.56;97.06;101207.16;6348622;28;20043;-78
2023/01/01 11:00:40;;;;;;;6.72;4.90;;;;;;;12.50;97.07;101203.94;6349357;28;20050;-78
2023/01/01 11:04:01;;;;;;;7.07;4.85;;;;;;;12.64;97.42;101212.84;6349152;28;20047;-79
2023/01/01 11:07:06;;;;;;;10.30;4.93;;;;;;;12.69;98.05;101200.38;6348350;28;20547;-79
2023/01/01 11:10:18;;;;;;;10.02;5.28;;;;;;;12.67;97.82;101197.81;6331407;28;20047;-78
2023/01/01 11:13:20;;;;;;;9.32;4.97;;;;;;;12.61;99.19;101185.06;6349321;28;20048;-78
2023/01/01 11:16:21;;;;;;;7.65;4.40;;;;;;;12.72;99.11;101184.50;6330972;28;20075;-78
2023/01/01 11:19:41;;;;;;;11.43;4.65;;;;;;;12.70;99.66;101179.34;6347926;28;20052;-78
2023/01/01 11:22:51;;;;;;;8.38;5.25;;;;;;;12.77;100.00;101176.41;6347948;28;20096;-78
2023/01/01 11:26:01;;;;;;;8.73;5.00;;;;;;;12.67;100.00;101181.28;6370725;27;20172;-77
2023/01/01 11:29:15;;;;;;;7.72;4.57;;;;;;;12.56;100.00;101175.72;6355827;27;20059;-79
2023/01/01 11:32:29;;;;;;;9.98;5.32;;;;;;;12.55;100.00;101171.44;6374480;27;20043;-78
2023/01/01 11:35:51;;;;;;;6.53;4.28;;;;;;;12.44;100.00;101164.16;6372067;27;20083;-78
2023/01/01 11:39:11;;;;;;;6.82;4.57;;;;;;;12.48;98.38;101176.16;6373300;27;20036;-78
2023/01/01 11:42:36;;;;;;;9.48;4.38;;;;;;;12.37;99.32;101183.69;6372805;27;20055;-78
2023/01/01 11:45:40;;;;;;;7.43;3.80;;;;;;;12.41;99.86;101185.22;6372899;27;20059;-79
2023/01/01 11:48:43;;;;;;;8.30;4.97;;;;;;;12.46;99.33;101176.22;6373058;27;20122;-79
2023/01/01 11:51:53;;;;;;;;;;;;;;;12.47;98.71;101190.16;6372915;27;20047;-79
2023/01/01 11:55:10;;;;;;;5.47;3.78;;;;;;;12.37;99.01;101191.53;6371408;27;20369;-79
2023/01/01 11:58:20;;;;;;;6.80;4.28;;;;;;;12.40;98.86;101183.53;6372354;27;20069;-79
2023/01/01 12:01:34;;;;;;;9.48;5.25;;;;;;;12.35;99.97;101182.91;6371329;27;20039;-77
2023/01/01 12:05:04;;;;;;;6.30;3.78;;;;;;;12.24;99.97;101165.16;6363291;27;20051;-77
2023/01/01 12:08:09;;;;;;;15.93;4.30;;;;;;;12.26;100.00;101172.00;6357913;27;20039;-78
2023/01/01 12:11:26;;;;;;;7.95;4.72;;;;;;;12.24;100.00;101165.16;6364250;27;20443;-77
2023/01/01 12:14:40;;;;;;;6.90;4.55;;;;;;;12.22;100.00;101156.53;6346623;28;20070;-78
2023/01/01 12:18:14;;;;;;;6.57;4.25;;;;;;;12.31;100.00;101163.91;6336056;27;20491;-78
2023/01/01 12:21:24;;;;;;;7.50;4.30;;;;;;;12.37;99.84;101152.28;6347558;28;20058;-79
2023/01/01 12:24:32;;;;;;;5.10;3.33;;;;;;;12.37;100.00;101140.03;6346889;28;20059;-79
2023/01/01 12:27:42;;;;;;;5.25;3.85;;;;;;;12.36;100.00;101140.97;6346472;28;20059;-78
2023/01/01 12:31:21;;;;;;;5.25;4.03;;;;;;;12.57;100.00;101146.03;6345082;28;20035;-78
2023/01/01 12:34:34;;;;;;;5.90;4.40;;;;;;;12.44;100.00;101132.72;6346125;28;20436;-77
2023/01/01 12:37:57;;;;;;;13.02;6.57;;;;;;;12.44;100.00;101130.13;6347780;28;20064;-78
2023/01/01 12:41:12;;;;;;;18.15;7.65;;;;;;;12.38;100.00;101148.75;6345991;28;20165;-78
2023/01/01 12:44:13;;;;;;;20.65;9.38;;;;;;;12.37;100.00;101140.03;6345930;28;20047;-79
2023/01/01 12:47:29;;;;;;;22.17;10.32;;;;;;;12.32;100.00;101141.22;6346547;28;20046;-79
2023/01/01 12:51:00;;;;;;;14.73;8.20;;;;;;;12.20;100.00;101138.28;6345623;28;20097;-79
2023/01/01 12:54:45;;;;;;;17.50;8.15;;;;;;;12.20;100.00;101137.44;6331517;28;20064;-79
2023/01/01 12:57:50;;;;;;;14.25;8.43;;;;;;;12.15;100.00;101135.06;6329006;28;20051;-79
2023/01/01 13:01:19;;;;;;;14.98;8.18;;;;;;;12.00;100.00;101134.03;6346000;28;20445;-77
2023/01/01 13:04:22;;;;;;;12.95;8.25;;;;;;;12.05;100.00;101128.59;6347113;28;20040;-78
2023/01/01 13:07:35;;;;;;;20.58;11.13;;;;;;;12.04;100.00;101119.88;6368413;28;20550;-79
2023/01/01 13:10:41;;;;;;;;;;;;;;;12.17;100.00;101114.03;6371518;27;20074;-79
2023/01/01 13:13:42;;;;;;;11.75;5.55;;;;;;;12.20;100.00;101103.44;6370972;28;19926;-77
2023/01/01 13:16:51;;;;;;;8.13;5.20;;;;;;;12.28;100.00;101116.97;6371225;28;20043;-77
2023/01/01 13:20:13;;;;;;;12.93;6.57;;;;;;;12.49;100.00;101117.63;6370602;27;20472;-77
2023/01/01 13:23:48;;;;;;;9.40;6.00;;;;;;;12.74;100.00;101127.66;6372290;27;20406;-77
2023/01/01 13:26:49;;;;;;;9.32;5.97;;;;;;;12.83;99.14;101124.56;6359197;27;20494;-78
2023/01/01 13:29:50;;;;;;;8.20;5.88;;;;;;;12.82;99.47;101128.09;6354209;28;20070;-79
2023/01/01 13:33:25;;;;;;;8.90;5.57;;;;;;;12.88;99.31;101140.00;6363001;27;20039;-80
2023/01/01 13:36:26;;;;;;;7.65;5.18;;;;;;;12.94;97.97;101142.31;6346759;28;20043;-79
2023/01/01 13:39:53;;;;;;;9.05;4.97;;;;;;;13.00;98.08;101147.22;6345686;28;20464;-79
2023/01/01 13:42:54;;;;;;;9.02;5.18;;;;;;;12.94;98.09;101144.94;6347000;28;20499;-79
2023/01/01 13:45:57;;;;;;;11.32;5.22;;;;;;;12.92;97.75;101133.69;6371072;27;20084;-79
2023/01/01 13:49:33;;;;;;;12.63;5.93;;;;;;;12.83;98.40;101127.16;6371278;27;20391;-79
2023/01/01 13:53:05;;;;;;;10.30;5.30;;;;;;;12.68;98.13;101128.84;6337444;28;20138;-79
2023/01/01 13:56:43;;;;;;;7.57;4.93;;;;;;;12.66;98.73;101127.19;6371863;27;20407;-79
2023/01/01 14:00:03;;;;;;;10.18;5.55;;;;;;;12.54;98.55;101126.09;6372021;27;20311;-77
2023/01/01 14:03:12;;;;;;;9.85;5.30;;;;;;;12.40;98.84;101133.81;6355699;27;20138;-78
2023/01/01 14:06:41;;;;;;;6.97;4.63;;;;;;;12.30;99.43;101141.28;6376610;27;20445;-77
2023/01/01 14:09:42;;;;;;;9.05;5.38;;;;;;;12.33;99.83;101145.50;6343532;27;20054;-78
2023/01/01 14:12:43;;;;;;;6.93;4.28;;;;;;;12.23;100.00;101146.00;6374888;27;20043;-78
2023/01/01 14:15:46;;;;;;;10.52;4.55;;;;;;;12.12;100.00;101148.28;6357283;27;20043;-78
2023/01/01 14:18:57;;;;;;;7.72;4.88;;;;;;;12.03;100.00;101148.75;6374576;27;20128;-80
2023/01/01 14:21:59;;;;;;;10.23;5.30;;;;;;;11.93;100.00;101137.06;6372506;27;20483;-80
2023/01/01 14:25:00;;;;;;;7.32;4.60;;;;;;;11.94;100.00;101146.56;6374935;27;20093;-79